createdAt,value
2018-12-13T00:00:27.445Z,4.61
2018-12-13T00:01:27.399Z,4.61
2018-12-13T00:02:49.117Z,4.57
2018-12-13T00:03:27.354Z,4.58
2018-12-13T00:04:27.330Z,4.50
2018-12-13T00:05:27.309Z,4.50
2018-12-13T00:06:33.221Z,4.47
2018-12-13T00:07:27.265Z,4.46
2018-12-13T00:08:48.249Z,4.55
2018-12-13T00:09:27.231Z,4.55
2018-12-13T00:10:27.208Z,4.54
2018-12-13T00:11:27.178Z,4.44
2018-12-13T00:12:27.156Z,4.46
2018-12-13T00:13:27.134Z,4.51
2018-12-13T00:14:48.122Z,4.52
2018-12-13T00:15:27.093Z,4.57
2018-12-13T00:16:27.071Z,4.54
2018-12-13T00:17:27.045Z,4.58
2018-12-13T00:18:27.026Z,4.57
2018-12-13T00:19:27.005Z,4.57
2018-12-13T00:20:47.991Z,4.65
2018-12-13T00:21:26.958Z,4.73
2018-12-13T00:22:26.940Z,4.62
2018-12-13T00:23:26.921Z,4.69
2018-12-13T00:24:26.896Z,4.58
2018-12-13T00:25:26.873Z,4.57
2018-12-13T00:26:47.853Z,4.61
2018-12-13T00:27:26.828Z,4.61
2018-12-13T00:28:26.806Z,4.69
2018-12-13T00:29:26.784Z,4.70
2018-12-13T00:30:26.769Z,4.59
2018-12-13T00:31:26.738Z,4.76
2018-12-13T00:32:47.722Z,4.72
2018-12-13T00:33:26.696Z,4.92
2018-12-13T00:34:26.686Z,4.86
2018-12-13T00:35:26.653Z,4.92
2018-12-13T00:36:26.633Z,4.84
2018-12-13T00:37:26.612Z,4.88
2018-12-13T00:38:47.591Z,4.80
2018-12-13T00:39:26.565Z,4.80
2018-12-13T00:40:26.545Z,4.75
2018-12-13T00:41:26.522Z,4.69
2018-12-13T00:42:26.501Z,4.69
2018-12-13T00:43:26.479Z,4.77
2018-12-13T00:44:47.458Z,4.69
2018-12-13T00:45:26.439Z,4.88
2018-12-13T00:46:26.414Z,4.77
2018-12-13T00:47:26.392Z,4.86
2018-12-13T00:48:26.371Z,4.84
2018-12-13T00:49:26.357Z,4.88
2018-12-13T00:50:47.333Z,4.94
2018-12-13T00:51:26.319Z,4.98
2018-12-13T00:52:26.285Z,4.99
2018-12-13T00:53:26.271Z,4.96
2018-12-13T00:54:26.241Z,4.83
2018-12-13T00:55:26.221Z,4.76
2018-12-13T00:56:47.198Z,4.70
2018-12-13T00:57:26.185Z,4.75
2018-12-13T00:58:26.161Z,4.65
2018-12-13T00:59:26.132Z,4.69
2018-12-13T01:00:26.112Z,4.69
2018-12-13T01:01:26.089Z,4.86
2018-12-13T01:02:47.071Z,4.84
2018-12-13T01:03:26.047Z,4.91
2018-12-13T01:04:26.033Z,4.94
2018-12-13T01:05:26.005Z,4.94
2018-12-13T01:06:25.981Z,4.92
2018-12-13T01:07:25.960Z,4.89
2018-12-13T01:08:46.942Z,4.89
2018-12-13T01:09:25.917Z,4.86
2018-12-13T01:10:25.893Z,4.84
2018-12-13T01:11:25.874Z,4.86
2018-12-13T01:12:25.857Z,4.89
2018-12-13T01:13:25.831Z,4.89
2018-12-13T01:14:46.813Z,5.01
2018-12-13T01:15:25.790Z,4.96
2018-12-13T01:16:25.765Z,4.96
2018-12-13T01:17:25.746Z,4.95
2018-12-13T01:18:25.723Z,4.88
2018-12-13T01:19:25.702Z,4.88
2018-12-13T01:20:46.683Z,4.84
2018-12-13T01:21:25.657Z,4.89
2018-12-13T01:22:25.635Z,4.80
2018-12-13T01:23:25.614Z,4.89
2018-12-13T01:24:25.596Z,4.80
2018-12-13T01:25:25.571Z,4.77
2018-12-13T01:26:46.551Z,4.84
2018-12-13T01:27:25.529Z,4.77
2018-12-13T01:28:25.506Z,4.83
2018-12-13T01:29:25.484Z,4.64
2018-12-13T01:30:25.463Z,4.62
2018-12-13T01:31:25.449Z,4.61
2018-12-13T01:32:46.421Z,4.69
2018-12-13T01:33:25.406Z,4.59
2018-12-13T01:34:25.380Z,4.61
2018-12-13T01:35:25.354Z,4.65
2018-12-13T01:36:25.334Z,4.61
2018-12-13T01:37:25.310Z,4.59
2018-12-13T01:38:46.293Z,4.57
2018-12-13T01:39:25.269Z,4.50
2018-12-13T01:40:25.254Z,4.46
2018-12-13T01:41:25.225Z,4.46
2018-12-13T01:42:25.202Z,4.36
2018-12-13T01:43:25.181Z,4.40
2018-12-13T01:44:46.161Z,4.34
2018-12-13T01:45:25.145Z,4.39
2018-12-13T01:46:25.115Z,4.33
2018-12-13T01:47:25.094Z,4.37
2018-12-13T01:48:25.076Z,4.39
2018-12-13T01:49:25.055Z,4.33
2018-12-13T01:50:46.034Z,4.26
2018-12-13T01:51:25.009Z,4.19
2018-12-13T01:52:24.986Z,4.28
2018-12-13T01:53:24.965Z,4.26
2018-12-13T01:54:24.946Z,4.19
2018-12-13T01:55:24.919Z,4.24
2018-12-13T01:56:45.898Z,4.18
2018-12-13T01:57:24.872Z,4.16
2018-12-13T01:58:24.852Z,4.10
2018-12-13T01:59:24.834Z,4.10
2018-12-13T02:00:24.808Z,4.03
2018-12-13T02:01:24.788Z,4.07
2018-12-13T02:02:45.772Z,3.96
2018-12-13T02:03:24.749Z,4.03
2018-12-13T02:04:24.717Z,3.98
2018-12-13T02:05:24.706Z,4.03
2018-12-13T02:06:24.683Z,3.98
2018-12-13T02:07:24.655Z,4.00
2018-12-13T02:08:45.633Z,3.92
2018-12-13T02:09:24.609Z,3.97
2018-12-13T02:10:24.589Z,3.92
2018-12-13T02:11:24.566Z,3.92
2018-12-13T02:12:24.542Z,3.97
2018-12-13T02:13:24.522Z,3.89
2018-12-13T02:14:45.503Z,3.86
2018-12-13T02:15:24.476Z,3.88
2018-12-13T02:16:24.457Z,3.92
2018-12-13T02:17:24.434Z,3.79
2018-12-13T02:18:24.411Z,3.82
2018-12-13T02:19:24.400Z,3.94
2018-12-13T02:20:45.368Z,3.88
2018-12-13T02:21:24.346Z,3.83
2018-12-13T02:22:24.334Z,3.86
2018-12-13T02:23:24.297Z,3.82
2018-12-13T02:24:24.282Z,3.85
2018-12-13T02:25:24.255Z,3.85
2018-12-13T02:26:45.236Z,3.68
2018-12-13T02:27:24.213Z,3.76
2018-12-13T02:28:24.188Z,3.75
2018-12-13T02:29:24.162Z,3.72
2018-12-13T02:30:24.145Z,3.76
2018-12-13T02:31:24.122Z,3.70
2018-12-13T02:32:45.100Z,3.70
2018-12-13T02:33:24.082Z,3.65
2018-12-13T02:34:24.069Z,3.62
2018-12-13T02:35:24.029Z,3.57
2018-12-13T02:36:24.007Z,3.70
2018-12-13T02:37:23.991Z,3.62
2018-12-13T02:38:44.961Z,3.67
2018-12-13T02:39:23.938Z,3.61
2018-12-13T02:40:23.916Z,3.54
2018-12-13T02:41:23.894Z,3.62
2018-12-13T02:42:23.869Z,3.62
2018-12-13T02:43:23.860Z,3.70
2018-12-13T02:44:44.828Z,3.61
2018-12-13T02:45:23.802Z,3.64
2018-12-13T02:46:23.784Z,3.64
2018-12-13T02:47:23.760Z,3.53
2018-12-13T02:48:23.734Z,3.46
2018-12-13T02:49:23.713Z,3.58
2018-12-13T02:50:44.703Z,3.54
2018-12-13T02:51:23.668Z,3.58
2018-12-13T02:52:23.648Z,3.47
2018-12-13T02:53:23.625Z,3.52
2018-12-13T02:54:23.598Z,3.49
2018-12-13T02:55:23.580Z,3.46
2018-12-13T02:56:44.555Z,3.53
2018-12-13T02:57:23.535Z,3.40
2018-12-13T02:58:23.509Z,3.34
2018-12-13T02:59:23.486Z,3.40
2018-12-13T03:00:23.467Z,3.44
2018-12-13T03:01:23.442Z,3.34
2018-12-13T03:02:44.427Z,3.34
2018-12-13T03:03:23.396Z,3.36
2018-12-13T03:04:23.373Z,3.24
2018-12-13T03:05:23.354Z,3.34
2018-12-13T03:06:23.328Z,3.31
2018-12-13T03:07:23.303Z,3.23
2018-12-13T03:08:44.288Z,3.25
2018-12-13T03:09:23.259Z,3.27
2018-12-13T03:10:23.242Z,3.28
2018-12-13T03:11:23.212Z,3.28
2018-12-13T03:12:23.192Z,3.31
2018-12-13T03:13:23.167Z,3.28
2018-12-13T03:14:44.153Z,3.30
2018-12-13T03:15:23.121Z,3.28
2018-12-13T03:16:23.098Z,3.30
2018-12-13T03:17:23.080Z,3.24
2018-12-13T03:18:23.055Z,3.25
2018-12-13T03:19:23.031Z,3.33
2018-12-13T03:20:44.017Z,3.25
2018-12-13T03:21:22.985Z,3.10
2018-12-13T03:22:22.963Z,3.10
2018-12-13T03:23:22.943Z,3.18
2018-12-13T03:24:22.918Z,3.15
2018-12-13T03:25:22.892Z,3.25
2018-12-13T03:26:43.871Z,3.23
2018-12-13T03:27:22.845Z,3.27
2018-12-13T03:28:22.824Z,3.27
2018-12-13T03:29:22.804Z,3.23
2018-12-13T03:30:22.782Z,3.28
2018-12-13T03:31:22.758Z,3.21
2018-12-13T03:32:43.738Z,3.30
2018-12-13T03:33:22.710Z,3.27
2018-12-13T03:34:22.690Z,3.24
2018-12-13T03:35:22.665Z,3.39
2018-12-13T03:36:22.643Z,3.39
2018-12-13T03:37:22.622Z,3.36
2018-12-13T03:38:43.602Z,3.36
2018-12-13T03:39:22.576Z,3.34
2018-12-13T03:40:22.557Z,3.42
2018-12-13T03:41:22.535Z,3.39
2018-12-13T03:42:22.505Z,3.46
2018-12-13T03:43:22.481Z,3.46
2018-12-13T03:44:43.473Z,3.50
2018-12-13T03:45:22.435Z,3.46
2018-12-13T03:46:22.420Z,3.36
2018-12-13T03:47:22.391Z,3.23
2018-12-13T03:48:22.370Z,3.30
2018-12-13T03:49:22.348Z,3.25
2018-12-13T03:50:43.326Z,3.24
2018-12-13T03:51:22.303Z,3.25
2018-12-13T03:52:22.279Z,3.27
2018-12-13T03:53:22.256Z,3.23
2018-12-13T03:54:22.230Z,3.21
2018-12-13T03:55:22.219Z,3.24
2018-12-13T03:56:43.186Z,3.18
2018-12-13T03:57:22.159Z,3.23
2018-12-13T03:58:22.139Z,3.16
2018-12-13T03:59:22.117Z,3.20
2018-12-13T04:00:22.095Z,3.18
2018-12-13T04:01:22.072Z,3.21
2018-12-13T04:02:43.051Z,3.23
2018-12-13T04:03:22.025Z,3.18
2018-12-13T04:04:22.002Z,3.10
2018-12-13T04:05:21.979Z,3.16
2018-12-13T04:06:21.958Z,3.16
2018-12-13T04:07:27.708Z,3.03
2018-12-13T04:08:42.913Z,3.07
2018-12-13T04:09:21.891Z,3.10
2018-12-13T04:10:21.865Z,3.07
2018-12-13T04:11:21.842Z,3.03
2018-12-13T04:12:21.820Z,3.05
2018-12-13T04:13:21.796Z,3.03
2018-12-13T04:14:42.787Z,2.98
2018-12-13T04:15:21.751Z,3.06
2018-12-13T04:16:21.727Z,2.98
2018-12-13T04:17:21.704Z,2.97
2018-12-13T04:18:21.683Z,2.89
2018-12-13T04:19:21.659Z,2.97
2018-12-13T04:20:42.642Z,2.97
2018-12-13T04:21:21.622Z,2.94
2018-12-13T04:22:21.589Z,2.91
2018-12-13T04:23:21.574Z,3.00
2018-12-13T04:24:21.540Z,2.95
2018-12-13T04:25:21.518Z,2.95
2018-12-13T04:26:42.503Z,2.98
2018-12-13T04:27:21.477Z,2.95
2018-12-13T04:28:21.447Z,2.95
2018-12-13T04:29:21.436Z,2.98
2018-12-13T04:30:21.409Z,2.92
2018-12-13T04:31:21.383Z,2.94
2018-12-13T04:32:42.361Z,2.98
2018-12-13T04:33:21.338Z,3.00
2018-12-13T04:34:21.319Z,2.88
2018-12-13T04:35:21.288Z,2.82
2018-12-13T04:36:21.268Z,2.88
2018-12-13T04:37:21.243Z,2.79
2018-12-13T04:38:42.225Z,2.87
2018-12-13T04:39:21.201Z,2.88
2018-12-13T04:40:21.173Z,2.85
2018-12-13T04:41:21.149Z,2.92
2018-12-13T04:42:21.126Z,2.87
2018-12-13T04:43:21.107Z,2.76
2018-12-13T04:44:42.083Z,2.87
2018-12-13T04:45:21.061Z,2.84
2018-12-13T04:46:21.033Z,2.81
2018-12-13T04:47:21.024Z,2.79
2018-12-13T04:48:20.990Z,2.87
2018-12-13T04:49:20.963Z,2.77
2018-12-13T04:50:41.953Z,2.82
2018-12-13T04:51:20.919Z,2.89
2018-12-13T04:52:20.897Z,2.77
2018-12-13T04:53:20.871Z,2.84
2018-12-13T04:54:20.847Z,2.82
2018-12-13T04:55:20.826Z,2.73
2018-12-13T04:56:41.802Z,2.81
2018-12-13T04:57:20.775Z,2.84
2018-12-13T04:58:20.759Z,2.82
2018-12-13T04:59:20.732Z,2.77
2018-12-13T05:00:20.709Z,2.82
2018-12-13T05:01:20.693Z,2.82
2018-12-13T05:02:41.661Z,2.71
2018-12-13T05:03:20.642Z,2.74
2018-12-13T05:04:20.614Z,2.69
2018-12-13T05:05:20.593Z,2.71
2018-12-13T05:06:20.567Z,2.71
2018-12-13T05:07:20.545Z,2.73
2018-12-13T05:08:41.520Z,2.77
2018-12-13T05:09:20.500Z,2.71
2018-12-13T05:10:20.483Z,2.66
2018-12-13T05:11:20.453Z,2.66
2018-12-13T05:12:20.435Z,2.59
2018-12-13T05:13:20.404Z,2.55
2018-12-13T05:14:41.382Z,2.58
2018-12-13T05:15:20.359Z,2.55
2018-12-13T05:16:20.337Z,2.64
2018-12-13T05:17:20.314Z,2.66
2018-12-13T05:18:20.292Z,2.63
2018-12-13T05:19:20.264Z,2.66
2018-12-13T05:20:41.245Z,2.63
2018-12-13T05:21:20.219Z,2.63
2018-12-13T05:22:20.542Z,2.53
2018-12-13T05:23:20.170Z,2.53
2018-12-13T05:24:20.147Z,2.66
2018-12-13T05:25:20.130Z,2.53
2018-12-13T05:26:41.102Z,2.55
2018-12-13T05:27:20.078Z,2.59
2018-12-13T05:28:20.053Z,2.55
2018-12-13T05:29:20.033Z,2.58
2018-12-13T05:30:20.007Z,2.61
2018-12-13T05:31:19.987Z,2.58
2018-12-13T05:32:40.962Z,2.58
2018-12-13T05:33:19.947Z,2.55
2018-12-13T05:34:19.914Z,2.56
2018-12-13T05:35:19.890Z,2.55
2018-12-13T05:36:19.873Z,2.55
2018-12-13T05:37:19.846Z,2.53
2018-12-13T05:38:40.822Z,2.58
2018-12-13T05:39:19.808Z,2.55
2018-12-13T05:40:19.772Z,2.55
2018-12-13T05:41:19.750Z,2.64
2018-12-13T05:42:19.726Z,2.58
2018-12-13T05:43:19.706Z,2.53
2018-12-13T05:44:40.681Z,2.56
2018-12-13T05:45:19.663Z,2.56
2018-12-13T05:46:19.635Z,2.59
2018-12-13T05:47:19.620Z,2.55
2018-12-13T05:48:19.588Z,2.53
2018-12-13T05:49:19.566Z,2.49
2018-12-13T05:50:40.546Z,2.49
2018-12-13T05:51:19.519Z,2.49
2018-12-13T05:52:19.496Z,2.53
2018-12-13T05:53:19.467Z,2.52
2018-12-13T05:54:19.441Z,2.52
2018-12-13T05:55:19.421Z,2.48
2018-12-13T05:56:40.397Z,2.55
2018-12-13T05:57:19.374Z,2.55
2018-12-13T05:58:19.351Z,2.46
2018-12-13T05:59:19.329Z,2.52
2018-12-13T06:00:19.341Z,2.46
2018-12-13T06:01:19.282Z,2.48
2018-12-13T06:02:40.257Z,2.53
2018-12-13T06:03:19.237Z,2.45
2018-12-13T06:04:19.210Z,2.48
2018-12-13T06:05:19.186Z,2.45
2018-12-13T06:06:19.169Z,2.41
2018-12-13T06:07:19.144Z,2.44
2018-12-13T06:08:40.119Z,2.38
2018-12-13T06:09:19.102Z,2.35
2018-12-13T06:10:19.074Z,2.31
2018-12-13T06:11:19.048Z,2.34
2018-12-13T06:12:19.021Z,2.31
2018-12-13T06:13:18.998Z,2.31
2018-12-13T06:14:39.977Z,2.28
2018-12-13T06:15:18.956Z,2.31
2018-12-13T06:16:18.954Z,2.34
2018-12-13T06:17:18.904Z,2.35
2018-12-13T06:18:18.891Z,2.34
2018-12-13T06:19:18.862Z,2.28
2018-12-13T06:20:39.839Z,2.22
2018-12-13T06:21:18.817Z,2.31
2018-12-13T06:22:18.791Z,2.20
2018-12-13T06:23:18.763Z,2.34
2018-12-13T06:24:18.744Z,2.22
2018-12-13T06:25:18.739Z,2.35
2018-12-13T06:26:39.695Z,2.22
2018-12-13T06:27:18.670Z,2.22
2018-12-13T06:28:18.654Z,2.16
2018-12-13T06:29:18.627Z,2.10
2018-12-13T06:30:18.601Z,2.15
2018-12-13T06:31:18.576Z,2.10
2018-12-13T06:32:39.550Z,2.12
2018-12-13T06:33:24.695Z,2.12
2018-12-13T06:34:18.514Z,2.13
2018-12-13T06:35:18.482Z,2.15
2018-12-13T06:36:18.455Z,2.20
2018-12-13T06:37:18.436Z,2.15
2018-12-13T06:38:39.414Z,2.15
2018-12-13T06:39:18.389Z,2.16
2018-12-13T06:40:18.380Z,2.08
2018-12-13T06:41:18.339Z,2.17
2018-12-13T06:42:18.325Z,2.17
2018-12-13T06:43:18.297Z,2.27
2018-12-13T06:44:39.325Z,2.13
2018-12-13T06:45:18.243Z,2.09
2018-12-13T06:46:18.221Z,2.12
2018-12-13T06:47:18.197Z,2.13
2018-12-13T06:48:18.173Z,2.13
2018-12-13T06:49:18.155Z,2.17
2018-12-13T06:50:39.130Z,2.13
2018-12-13T06:51:18.102Z,2.22
2018-12-13T06:52:18.083Z,2.09
2018-12-13T06:53:18.056Z,2.20
2018-12-13T06:54:18.031Z,2.16
2018-12-13T06:55:18.019Z,2.12
2018-12-13T06:56:38.991Z,2.17
2018-12-13T06:57:17.964Z,2.17
2018-12-13T06:58:17.936Z,2.20
2018-12-13T06:59:17.914Z,2.19
2018-12-13T07:00:17.893Z,2.23
2018-12-13T07:01:17.865Z,2.31
2018-12-13T07:02:38.849Z,2.22
2018-12-13T07:03:17.900Z,2.34
2018-12-13T07:04:17.799Z,2.34
2018-12-13T07:05:17.772Z,2.30
2018-12-13T07:06:17.749Z,2.35
2018-12-13T07:07:17.727Z,2.34
2018-12-13T07:08:38.699Z,2.33
2018-12-13T07:09:17.676Z,2.31
2018-12-13T07:10:17.655Z,2.45
2018-12-13T07:11:17.629Z,2.41
2018-12-13T07:12:17.604Z,2.46
2018-12-13T07:13:17.582Z,2.38
2018-12-13T07:14:38.563Z,2.33
2018-12-13T07:15:17.533Z,2.31
2018-12-13T07:16:17.513Z,2.30
2018-12-13T07:17:17.489Z,2.34
2018-12-13T07:18:17.463Z,2.37
2018-12-13T07:19:17.437Z,2.34
2018-12-13T07:20:38.418Z,2.30
2018-12-13T07:21:17.405Z,2.30
2018-12-13T07:22:17.376Z,2.28
2018-12-13T07:23:17.348Z,2.33
2018-12-13T07:24:17.323Z,2.33
2018-12-13T07:25:17.303Z,2.30
2018-12-13T07:26:38.281Z,2.33
2018-12-13T07:27:17.259Z,2.23
2018-12-13T07:28:17.229Z,2.33
2018-12-13T07:29:17.203Z,2.20
2018-12-13T07:30:17.186Z,2.19
2018-12-13T07:31:17.160Z,2.27
2018-12-13T07:32:38.131Z,2.19
2018-12-13T07:33:17.111Z,2.22
2018-12-13T07:34:17.089Z,2.35
2018-12-13T07:35:17.065Z,2.23
2018-12-13T07:36:17.038Z,2.26
2018-12-13T07:37:17.011Z,2.19
2018-12-13T07:38:38.002Z,2.17
2018-12-13T07:39:16.989Z,2.23
2018-12-13T07:40:16.942Z,2.30
2018-12-13T07:41:16.919Z,2.17
2018-12-13T07:42:16.893Z,2.20
2018-12-13T07:43:16.871Z,2.28
2018-12-13T07:44:37.851Z,2.31
2018-12-13T07:45:16.827Z,2.31
2018-12-13T07:46:16.800Z,2.31
2018-12-13T07:47:16.778Z,2.33
2018-12-13T07:48:16.753Z,2.37
2018-12-13T07:49:16.734Z,2.37
2018-12-13T07:50:37.710Z,2.35
2018-12-13T07:51:16.682Z,2.52
2018-12-13T07:52:16.665Z,2.52
2018-12-13T07:53:16.637Z,2.48
2018-12-13T07:54:16.611Z,2.58
2018-12-13T07:55:16.593Z,2.58
2018-12-13T07:56:37.569Z,2.59
2018-12-13T07:57:16.541Z,2.67
2018-12-13T07:58:16.525Z,2.69
2018-12-13T07:59:16.494Z,2.74
2018-12-13T08:00:16.471Z,2.73
2018-12-13T08:01:16.452Z,2.76
2018-12-13T08:02:37.426Z,2.77
2018-12-13T08:03:16.408Z,2.82
2018-12-13T08:04:16.384Z,2.88
2018-12-13T08:05:16.355Z,2.94
2018-12-13T08:06:16.330Z,2.92
2018-12-13T08:07:16.307Z,2.94
2018-12-13T08:08:37.287Z,2.87
2018-12-13T08:09:16.259Z,2.91
2018-12-13T08:10:16.238Z,2.89
2018-12-13T08:11:16.217Z,3.06
2018-12-13T08:12:16.189Z,2.92
2018-12-13T08:13:16.165Z,3.03
2018-12-13T08:14:37.143Z,3.05
2018-12-13T08:15:16.122Z,3.03
2018-12-13T08:16:16.098Z,3.05
2018-12-13T08:17:16.078Z,3.05
2018-12-13T08:18:16.052Z,2.98
2018-12-13T08:19:16.041Z,3.07
2018-12-13T08:20:37.007Z,3.05
2018-12-13T08:21:15.986Z,3.07
2018-12-13T08:22:15.977Z,3.20
2018-12-13T08:23:15.940Z,3.27
2018-12-13T08:24:15.913Z,3.18
2018-12-13T08:25:15.891Z,3.24
2018-12-13T08:26:36.867Z,3.24
2018-12-13T08:27:15.845Z,3.30
2018-12-13T08:28:15.843Z,3.31
2018-12-13T08:29:15.810Z,3.25
2018-12-13T08:30:15.781Z,3.27
2018-12-13T08:31:15.755Z,3.28
2018-12-13T08:32:36.741Z,3.30
2018-12-13T08:33:15.709Z,3.25
2018-12-13T08:34:15.682Z,3.33
2018-12-13T08:35:15.660Z,3.49
2018-12-13T08:36:15.644Z,3.64
2018-12-13T08:37:15.611Z,3.64
2018-12-13T08:38:36.635Z,3.62
2018-12-13T08:39:15.581Z,3.64
2018-12-13T08:40:15.554Z,3.58
2018-12-13T08:41:15.524Z,3.61
2018-12-13T08:42:15.500Z,3.60
2018-12-13T08:43:15.498Z,3.60
2018-12-13T08:44:36.473Z,3.64
2018-12-13T08:45:15.439Z,3.57
2018-12-13T08:46:15.423Z,3.61
2018-12-13T08:47:15.393Z,3.57
2018-12-13T08:48:15.366Z,3.60
2018-12-13T08:49:15.343Z,3.58
2018-12-13T08:50:36.323Z,3.54
2018-12-13T08:51:15.298Z,3.62
2018-12-13T08:52:15.276Z,3.64
2018-12-13T08:53:15.257Z,3.64
2018-12-13T08:54:15.230Z,3.64
2018-12-13T08:55:15.211Z,3.71
2018-12-13T08:56:36.203Z,3.78
2018-12-13T08:57:15.201Z,3.78
2018-12-13T08:58:15.142Z,3.71
2018-12-13T08:59:15.118Z,3.79
2018-12-13T09:00:15.094Z,3.75
2018-12-13T09:01:15.072Z,3.82
2018-12-13T09:02:36.051Z,3.86
2018-12-13T09:03:15.030Z,3.88
2018-12-13T09:04:15.011Z,3.86
2018-12-13T09:05:14.996Z,3.89
2018-12-13T09:06:14.981Z,3.76
2018-12-13T09:07:14.937Z,3.85
2018-12-13T09:08:35.913Z,3.89
2018-12-13T09:09:14.892Z,4.01
2018-12-13T09:10:14.872Z,4.14
2018-12-13T09:11:14.850Z,4.01
2018-12-13T09:12:14.826Z,4.16
2018-12-13T09:13:14.807Z,4.15
2018-12-13T09:14:35.785Z,4.12
2018-12-13T09:15:14.758Z,4.03
2018-12-13T09:16:14.776Z,4.00
2018-12-13T09:17:14.713Z,3.88
2018-12-13T09:18:14.706Z,3.88
2018-12-13T09:19:14.670Z,4.00
2018-12-13T09:20:35.644Z,4.00
2018-12-13T09:21:14.625Z,3.98
2018-12-13T09:22:14.600Z,4.08
2018-12-13T09:23:14.581Z,4.03
2018-12-13T09:24:14.557Z,4.08
2018-12-13T09:25:14.553Z,4.00
2018-12-13T09:26:35.513Z,4.08
2018-12-13T09:27:14.489Z,4.10
2018-12-13T09:28:14.467Z,4.24
2018-12-13T09:29:14.447Z,4.12
2018-12-13T09:30:14.422Z,4.10
2018-12-13T09:31:14.401Z,4.04
2018-12-13T09:32:35.385Z,4.03
2018-12-13T09:33:14.376Z,4.03
2018-12-13T09:34:14.354Z,4.19
2018-12-13T09:35:14.324Z,4.19
2018-12-13T09:36:14.302Z,4.28
2018-12-13T09:37:14.284Z,4.42
2018-12-13T09:38:39.798Z,4.51
2018-12-13T09:39:14.226Z,4.54
2018-12-13T09:40:14.220Z,4.54
2018-12-13T09:41:14.183Z,4.65
2018-12-13T09:42:14.168Z,4.59
2018-12-13T09:43:14.148Z,4.58
2018-12-13T09:44:35.184Z,4.69
2018-12-13T09:45:14.098Z,4.65
2018-12-13T09:46:14.077Z,4.77
2018-12-13T09:47:14.061Z,4.77
2018-12-13T09:48:14.042Z,4.80
2018-12-13T09:49:14.031Z,4.76
2018-12-13T09:50:34.996Z,4.79
2018-12-13T09:51:13.983Z,4.86
2018-12-13T09:52:13.943Z,4.91
2018-12-13T09:53:13.919Z,4.98
2018-12-13T09:54:13.903Z,4.88
2018-12-13T09:55:13.882Z,4.96
2018-12-13T09:56:34.872Z,5.04
2018-12-13T09:57:13.840Z,5.10
2018-12-13T09:58:13.823Z,5.20
2018-12-13T09:59:13.804Z,5.20
2018-12-13T10:00:13.774Z,5.22
2018-12-13T10:01:13.765Z,5.16
2018-12-13T10:02:34.727Z,5.13
2018-12-13T10:03:13.704Z,5.13
2018-12-13T10:04:13.682Z,5.05
2018-12-13T10:05:13.664Z,5.07
2018-12-13T10:06:13.642Z,5.12
2018-12-13T10:07:13.621Z,4.96
2018-12-13T10:08:34.597Z,4.89
2018-12-13T10:09:13.578Z,4.92
2018-12-13T10:10:13.565Z,4.80
2018-12-13T10:11:13.534Z,4.99
2018-12-13T10:12:13.510Z,4.92
2018-12-13T10:13:13.495Z,5.07
2018-12-13T10:14:34.472Z,5.05
2018-12-13T10:15:13.452Z,5.17
2018-12-13T10:16:13.438Z,5.07
2018-12-13T10:17:14.884Z,5.16
2018-12-13T10:18:13.386Z,5.10
2018-12-13T10:19:13.371Z,5.17
2018-12-13T10:20:34.361Z,5.23
2018-12-13T10:21:13.345Z,5.14
2018-12-13T10:22:13.299Z,5.27
2018-12-13T10:23:13.279Z,5.17
2018-12-13T10:24:13.256Z,5.22
2018-12-13T10:25:13.243Z,5.27
2018-12-13T10:26:34.220Z,5.34
2018-12-13T10:27:13.192Z,5.22
2018-12-13T10:28:13.188Z,5.20
2018-12-13T10:29:13.164Z,5.16
2018-12-13T10:30:13.130Z,5.04
2018-12-13T10:31:13.115Z,5.02
2018-12-13T10:32:34.084Z,5.25
2018-12-13T10:33:13.093Z,5.20
2018-12-13T10:34:13.047Z,5.28
2018-12-13T10:35:13.023Z,5.40
2018-12-13T10:36:13.031Z,5.27
2018-12-13T10:37:12.982Z,5.16
2018-12-13T10:38:33.966Z,5.23
2018-12-13T10:39:12.941Z,5.30
2018-12-13T10:40:12.917Z,5.28
2018-12-13T10:41:12.895Z,5.25
2018-12-13T10:42:12.874Z,5.40
2018-12-13T10:43:12.856Z,5.38
2018-12-13T10:44:33.833Z,5.31
2018-12-13T10:45:12.813Z,5.25
2018-12-13T10:46:12.793Z,5.40
2018-12-13T10:47:12.782Z,5.31
2018-12-13T10:48:12.755Z,5.53
2018-12-13T10:49:12.733Z,5.59
2018-12-13T10:50:33.747Z,5.67
2018-12-13T10:51:12.697Z,5.81
2018-12-13T10:52:12.673Z,5.73
2018-12-13T10:53:12.649Z,5.68
2018-12-13T10:54:12.628Z,5.64
2018-12-13T10:55:12.608Z,5.73
2018-12-13T10:56:33.583Z,5.66
2018-12-13T10:57:12.562Z,5.73
2018-12-13T10:58:12.552Z,5.70
2018-12-13T10:59:12.534Z,5.77
2018-12-13T11:00:12.505Z,5.92
2018-12-13T11:01:12.483Z,5.91
2018-12-13T11:02:33.461Z,5.89
2018-12-13T11:03:12.441Z,5.96
2018-12-13T11:04:12.519Z,5.89
2018-12-13T11:05:12.397Z,6.04
2018-12-13T11:06:12.379Z,6.01
2018-12-13T11:07:12.363Z,6.00
2018-12-13T11:08:33.339Z,6.07
2018-12-13T11:09:12.317Z,6.06
2018-12-13T11:10:12.295Z,6.06
2018-12-13T11:11:12.273Z,6.00
2018-12-13T11:12:12.253Z,5.95
2018-12-13T11:13:12.237Z,5.96
2018-12-13T11:14:33.226Z,6.01
2018-12-13T11:15:12.202Z,6.01
2018-12-13T11:16:12.176Z,5.93
2018-12-13T11:17:12.153Z,5.83
2018-12-13T11:18:12.135Z,5.75
2018-12-13T11:19:12.111Z,5.68
2018-12-13T11:20:33.128Z,5.59
2018-12-13T11:21:17.477Z,5.71
2018-12-13T11:22:12.106Z,5.63
2018-12-13T11:23:12.032Z,5.57
2018-12-13T11:24:12.024Z,5.59
2018-12-13T11:25:11.994Z,5.66
2018-12-13T11:26:32.970Z,5.70
2018-12-13T11:27:11.948Z,5.56
2018-12-13T11:28:11.929Z,5.56
2018-12-13T11:29:11.910Z,5.68
2018-12-13T11:30:11.889Z,5.70
2018-12-13T11:31:11.872Z,5.73
2018-12-13T11:32:32.850Z,5.70
2018-12-13T11:33:11.826Z,5.63
2018-12-13T11:34:11.806Z,5.67
2018-12-13T11:35:12.918Z,5.56
2018-12-13T11:36:11.761Z,5.70
2018-12-13T11:37:11.743Z,5.74
2018-12-13T11:38:32.726Z,5.74
2018-12-13T11:39:11.703Z,5.74
2018-12-13T11:40:11.778Z,5.78
2018-12-13T11:41:11.664Z,5.77
2018-12-13T11:42:11.651Z,5.82
2018-12-13T11:43:11.625Z,5.74
2018-12-13T11:44:32.616Z,5.89
2018-12-13T11:45:11.659Z,5.85
2018-12-13T11:46:11.568Z,5.98
2018-12-13T11:47:11.538Z,6.01
2018-12-13T11:48:11.518Z,5.95
2018-12-13T11:49:12.281Z,6.04
2018-12-13T11:50:32.484Z,6.06
2018-12-13T11:51:11.458Z,5.88
2018-12-13T11:52:11.438Z,5.86
2018-12-13T11:53:11.417Z,5.93
2018-12-13T11:54:11.397Z,5.92
2018-12-13T11:55:11.383Z,6.07
2018-12-13T11:56:32.356Z,6.18
2018-12-13T11:57:11.338Z,6.25
2018-12-13T11:58:11.315Z,6.29
2018-12-13T11:59:11.298Z,6.18
2018-12-13T12:00:11.272Z,6.06
2018-12-13T12:01:11.255Z,6.06
2018-12-13T12:02:32.237Z,6.00
2018-12-13T12:03:11.214Z,6.06
2018-12-13T12:04:11.200Z,6.09
2018-12-13T12:05:11.173Z,6.06
2018-12-13T12:06:11.155Z,6.10
2018-12-13T12:07:11.149Z,6.07
2018-12-13T12:08:32.112Z,5.98
2018-12-13T12:09:12.351Z,6.03
2018-12-13T12:10:11.072Z,6.01
2018-12-13T12:11:11.056Z,6.03
2018-12-13T12:12:11.030Z,5.91
2018-12-13T12:13:11.014Z,5.85
2018-12-13T12:14:31.989Z,5.85
2018-12-13T12:15:11.002Z,5.86
2018-12-13T12:16:10.966Z,5.85
2018-12-13T12:17:10.930Z,5.92
2018-12-13T12:18:10.915Z,5.91
2018-12-13T12:19:10.887Z,5.96
2018-12-13T12:20:31.902Z,5.92
2018-12-13T12:21:10.864Z,6.07
2018-12-13T12:22:10.828Z,6.25
2018-12-13T12:23:10.810Z,6.19
2018-12-13T12:24:10.782Z,6.14
2018-12-13T12:25:10.769Z,6.21
2018-12-13T12:26:31.743Z,6.19
2018-12-13T12:27:11.035Z,6.29
2018-12-13T12:28:10.708Z,6.21
2018-12-13T12:29:10.689Z,6.00
2018-12-13T12:30:10.670Z,5.98
2018-12-13T12:31:10.642Z,5.93
2018-12-13T12:32:31.628Z,5.92
2018-12-13T12:33:10.701Z,5.74
2018-12-13T12:34:12.036Z,5.71
2018-12-13T12:36:10.643Z,5.78
2018-12-13T12:37:10.531Z,5.77
2018-12-13T12:38:31.518Z,5.89
2018-12-13T12:39:10.506Z,5.93
2018-12-13T12:40:10.561Z,6.00
2018-12-13T12:41:31.552Z,6.01
2018-12-13T12:42:11.316Z,5.86
2018-12-13T12:43:31.416Z,5.78
2018-12-13T12:44:10.401Z,5.75
2018-12-13T12:45:10.383Z,5.89
2018-12-13T12:46:31.355Z,5.93
2018-12-13T12:47:10.540Z,5.92
2018-12-13T12:48:31.315Z,5.93
2018-12-13T12:49:10.306Z,5.88
2018-12-13T12:50:10.288Z,5.86
2018-12-13T12:51:31.284Z,5.88
2018-12-13T12:52:10.226Z,5.92
2018-12-13T12:53:31.210Z,5.88
2018-12-13T12:54:10.185Z,5.86
2018-12-13T12:55:10.173Z,5.85
2018-12-13T12:56:31.161Z,5.85
2018-12-13T12:57:10.127Z,5.88
2018-12-13T12:58:31.114Z,6.04
2018-12-13T12:59:10.108Z,6.03
2018-12-13T13:00:10.080Z,6.07
2018-12-13T13:01:31.070Z,6.01
2018-12-13T13:02:10.037Z,6.00
2018-12-13T13:03:31.021Z,6.01
2018-12-13T13:04:09.988Z,6.01
2018-12-13T13:05:09.983Z,5.96
2018-12-13T13:06:30.953Z,5.85
2018-12-13T13:07:09.933Z,5.89
2018-12-13T13:08:30.914Z,5.88
2018-12-13T13:09:09.881Z,5.75
2018-12-13T13:10:09.879Z,5.77
2018-12-13T13:11:30.943Z,5.74
2018-12-13T13:12:10.559Z,5.81
2018-12-13T13:13:30.812Z,5.78
2018-12-13T13:14:09.870Z,5.73
2018-12-13T13:15:09.768Z,5.78
2018-12-13T13:16:30.747Z,5.74
2018-12-13T13:17:09.716Z,5.73
2018-12-13T13:18:30.727Z,5.74
2018-12-13T13:19:09.694Z,5.66